KLM3327 EGBB-EHAM
Flight info
| Callsign | KLM3327 |
|---|---|
| Flight time | 0h 45m |
| Altitude | 29000 |
| Route | UNGAP P155 SIVDA P137 REDFA |
| Aircraft | A320/M-SDE3FGHIRWY/LB1 |
Departure
| Time | 2026-04-27 06:07 |
|---|---|
| Airport | Birmingham Airport (EGBB) |
Arrival
| Time | 2026-04-27 06:53 |
|---|---|
| Airport | Amsterdam Airport Schiphol (EHAM) |
| Time | Latitude | Longitude | Altitude | Speed | Heading |
|---|---|---|---|---|---|
| 2026-04-27 05:44 | 52.45344 | -1.73697 | 321 ft | 0 kts | 146° |
| 2026-04-27 05:58 | 52.45360 | -1.73714 | 295 ft | 2 kts | 146° |
| 2026-04-27 05:58 | 52.45379 | -1.73733 | 324 ft | 4 kts | 160° |
| 2026-04-27 05:58 | 52.45404 | -1.73739 | 321 ft | 4 kts | 199° |
| 2026-04-27 05:59 | 52.45418 | -1.73724 | 323 ft | 0 kts | 236° |
| 2026-04-27 05:59 | 52.45407 | -1.73751 | 321 ft | 0 kts | 236° |
| 2026-04-27 06:03 | 52.45402 | -1.73763 | 323 ft | 8 kts | 236° |
| 2026-04-27 06:03 | 52.45340 | -1.73914 | 323 ft | 17 kts | 236° |
| 2026-04-27 06:03 | 52.45272 | -1.73962 | 323 ft | 11 kts | 156° |
| 2026-04-27 06:03 | 52.45214 | -1.73900 | 323 ft | 9 kts | 146° |
| 2026-04-27 06:04 | 52.45162 | -1.73844 | 323 ft | 8 kts | 146° |
| 2026-04-27 06:04 | 52.45105 | -1.73781 | 323 ft | 16 kts | 147° |
| 2026-04-27 06:04 | 52.44987 | -1.73693 | 322 ft | 20 kts | 145° |
| 2026-04-27 06:04 | 52.44878 | -1.73652 | 323 ft | 17 kts | 196° |
| 2026-04-27 06:05 | 52.44765 | -1.73714 | 324 ft | 17 kts | 197° |
| 2026-04-27 06:05 | 52.44655 | -1.73668 | 323 ft | 18 kts | 143° |
| 2026-04-27 06:05 | 52.44550 | -1.73547 | 323 ft | 19 kts | 145° |
| 2026-04-27 06:05 | 52.44436 | -1.73419 | 323 ft | 18 kts | 147° |
| 2026-04-27 06:06 | 52.44352 | -1.73474 | 324 ft | 13 kts | 236° |
| 2026-04-27 06:06 | 52.44308 | -1.73583 | 323 ft | 12 kts | 242° |
| 2026-04-27 06:06 | 52.44341 | -1.73643 | 324 ft | 6 kts | 333° |
| 2026-04-27 06:06 | 52.44369 | -1.73674 | 324 ft | 6 kts | 326° |
| 2026-04-27 06:07 | 52.44566 | -1.73897 | 326 ft | 72 kts | 325° |
| 2026-04-27 06:07 | 52.45163 | -1.74554 | 328 ft | 133 kts | 326° |
| 2026-04-27 06:07 | 52.46056 | -1.75560 | 489 ft | 166 kts | 325° |
| 2026-04-27 06:07 | 52.46996 | -1.76634 | 1229 ft | 164 kts | 325° |
| 2026-04-27 06:08 | 52.47947 | -1.77731 | 1842 ft | 176 kts | 325° |
| 2026-04-27 06:08 | 52.49011 | -1.78968 | 2186 ft | 198 kts | 325° |
| 2026-04-27 06:08 | 52.50291 | -1.80181 | 2480 ft | 225 kts | 342° |
| 2026-04-27 06:08 | 52.51813 | -1.80205 | 3357 ft | 226 kts | 17° |
| 2026-04-27 06:09 | 52.53153 | -1.78828 | 4174 ft | 233 kts | 47° |
| 2026-04-27 06:09 | 52.53894 | -1.76468 | 4997 ft | 237 kts | 80° |
| 2026-04-27 06:09 | 52.53910 | -1.73762 | 5843 ft | 240 kts | 102° |
| 2026-04-27 06:09 | 52.53434 | -1.71115 | 6646 ft | 244 kts | 107° |
| 2026-04-27 06:10 | 52.52987 | -1.68417 | 7434 ft | 247 kts | 107° |
| 2026-04-27 06:10 | 52.52178 | -1.65886 | 7972 ft | 262 kts | 132° |
| 2026-04-27 06:10 | 52.50844 | -1.63660 | 8426 ft | 281 kts | 136° |
| 2026-04-27 06:10 | 52.49420 | -1.61388 | 9164 ft | 289 kts | 136° |
| 2026-04-27 06:11 | 52.47966 | -1.59068 | 9989 ft | 294 kts | 136° |
| 2026-04-27 06:11 | 52.46490 | -1.56707 | 10761 ft | 298 kts | 136° |
| 2026-04-27 06:11 | 52.44979 | -1.54280 | 11269 ft | 314 kts | 136° |
| 2026-04-27 06:11 | 52.43362 | -1.51671 | 11508 ft | 337 kts | 135° |
| 2026-04-27 06:12 | 52.41660 | -1.48915 | 12026 ft | 348 kts | 135° |
| 2026-04-27 06:12 | 52.39923 | -1.46099 | 12729 ft | 354 kts | 136° |
| 2026-04-27 06:12 | 52.38227 | -1.43143 | 13458 ft | 358 kts | 128° |
| 2026-04-27 06:12 | 52.36914 | -1.39651 | 14170 ft | 363 kts | 115° |
| 2026-04-27 06:13 | 52.36108 | -1.35791 | 14803 ft | 366 kts | 101° |
| 2026-04-27 06:13 | 52.35841 | -1.31640 | 15439 ft | 369 kts | 89° |
| 2026-04-27 06:13 | 52.35863 | -1.27426 | 16078 ft | 372 kts | 88° |
| 2026-04-27 06:13 | 52.35884 | -1.23170 | 16717 ft | 376 kts | 88° |
| 2026-04-27 06:14 | 52.35900 | -1.18867 | 17346 ft | 380 kts | 88° |
| 2026-04-27 06:14 | 52.35910 | -1.14517 | 17974 ft | 384 kts | 88° |
| 2026-04-27 06:14 | 52.35917 | -1.10130 | 18589 ft | 388 kts | 88° |
| 2026-04-27 06:14 | 52.35925 | -1.05686 | 19129 ft | 392 kts | 88° |
| 2026-04-27 06:15 | 52.35932 | -1.01213 | 19676 ft | 395 kts | 89° |
| 2026-04-27 06:15 | 52.35936 | -0.96704 | 20206 ft | 399 kts | 89° |
| 2026-04-27 06:15 | 52.35940 | -0.92132 | 20704 ft | 404 kts | 89° |
| 2026-04-27 06:15 | 52.35943 | -0.87518 | 21237 ft | 408 kts | 89° |
| 2026-04-27 06:16 | 52.35943 | -0.82865 | 21781 ft | 411 kts | 89° |
| 2026-04-27 06:16 | 52.35939 | -0.78167 | 22322 ft | 414 kts | 89° |
| 2026-04-27 06:16 | 52.35932 | -0.73424 | 22851 ft | 418 kts | 89° |
| 2026-04-27 06:16 | 52.35925 | -0.68649 | 23368 ft | 421 kts | 89° |
| 2026-04-27 06:17 | 52.35918 | -0.63907 | 23857 ft | 424 kts | 89° |
| 2026-04-27 06:17 | 52.35909 | -0.59066 | 24269 ft | 427 kts | 90° |
| 2026-04-27 06:17 | 52.35898 | -0.54183 | 24667 ft | 430 kts | 90° |
| 2026-04-27 06:17 | 52.35885 | -0.49276 | 25060 ft | 433 kts | 90° |
| 2026-04-27 06:18 | 52.35870 | -0.44332 | 25447 ft | 436 kts | 90° |
| 2026-04-27 06:18 | 52.35853 | -0.39363 | 25823 ft | 439 kts | 90° |
| 2026-04-27 06:18 | 52.35831 | -0.34354 | 26192 ft | 441 kts | 90° |
| 2026-04-27 06:18 | 52.35804 | -0.29324 | 26554 ft | 444 kts | 90° |
| 2026-04-27 06:19 | 52.35776 | -0.24253 | 26914 ft | 447 kts | 90° |
| 2026-04-27 06:19 | 52.35748 | -0.19160 | 27264 ft | 449 kts | 90° |
| 2026-04-27 06:19 | 52.35718 | -0.14031 | 27614 ft | 452 kts | 90° |
| 2026-04-27 06:19 | 52.35696 | -0.10621 | 27842 ft | 454 kts | 91° |
| 2026-04-27 06:20 | 52.35661 | -0.05442 | 28181 ft | 456 kts | 91° |
| 2026-04-27 06:20 | 52.35624 | -0.00233 | 28517 ft | 459 kts | 91° |
| 2026-04-27 06:20 | 52.35428 | 0.04993 | 28775 ft | 462 kts | 98° |
| 2026-04-27 06:20 | 52.34967 | 0.10211 | 29068 ft | 465 kts | 99° |
| 2026-04-27 06:21 | 52.34499 | 0.15470 | 29277 ft | 467 kts | 99° |
| 2026-04-27 06:21 | 52.33890 | 0.22317 | 29320 ft | 454 kts | 99° |
| 2026-04-27 06:21 | 52.33132 | 0.30829 | 29314 ft | 450 kts | 99° |
| 2026-04-27 06:22 | 52.32225 | 0.40938 | 29325 ft | 449 kts | 99° |
| 2026-04-27 06:22 | 52.31316 | 0.50971 | 29313 ft | 450 kts | 99° |
| 2026-04-27 06:23 | 52.30385 | 0.61103 | 29325 ft | 451 kts | 100° |
| 2026-04-27 06:23 | 52.29431 | 0.71241 | 29319 ft | 451 kts | 100° |
| 2026-04-27 06:24 | 52.28476 | 0.81365 | 29321 ft | 451 kts | 100° |
| 2026-04-27 06:24 | 52.27525 | 0.91498 | 29303 ft | 451 kts | 101° |
| 2026-04-27 06:25 | 52.26556 | 1.01642 | 29301 ft | 452 kts | 101° |
| 2026-04-27 06:25 | 52.25573 | 1.11801 | 29303 ft | 454 kts | 101° |
| 2026-04-27 06:26 | 52.24582 | 1.21989 | 29299 ft | 454 kts | 101° |
| 2026-04-27 06:26 | 52.23585 | 1.32166 | 29294 ft | 454 kts | 101° |
| 2026-04-27 06:27 | 52.22581 | 1.42353 | 29309 ft | 455 kts | 101° |
| 2026-04-27 06:27 | 52.21569 | 1.52538 | 29302 ft | 455 kts | 101° |
| 2026-04-27 06:28 | 52.20543 | 1.62670 | 29298 ft | 456 kts | 101° |
| 2026-04-27 06:28 | 52.19490 | 1.72939 | 29304 ft | 456 kts | 102° |
| 2026-04-27 06:29 | 52.18443 | 1.83071 | 29305 ft | 456 kts | 102° |
| 2026-04-27 06:29 | 52.17382 | 1.93285 | 29120 ft | 457 kts | 102° |
| 2026-04-27 06:30 | 52.16853 | 1.98372 | 28840 ft | 455 kts | 102° |
| 2026-04-27 06:30 | 52.16325 | 2.03437 | 28455 ft | 452 kts | 102° |
| 2026-04-27 06:30 | 52.15799 | 2.08468 | 27835 ft | 449 kts | 102° |
| 2026-04-27 06:30 | 52.15273 | 2.13467 | 27246 ft | 446 kts | 102° |
| 2026-04-27 06:31 | 52.14746 | 2.18420 | 26661 ft | 443 kts | 102° |
| 2026-04-27 06:31 | 52.14216 | 2.23348 | 26086 ft | 440 kts | 101° |
| 2026-04-27 06:31 | 52.13689 | 2.28243 | 25540 ft | 437 kts | 101° |
| 2026-04-27 06:31 | 52.13167 | 2.33105 | 24991 ft | 435 kts | 101° |
| 2026-04-27 06:32 | 52.12646 | 2.37938 | 24464 ft | 432 kts | 101° |
| 2026-04-27 06:32 | 52.12265 | 2.42766 | 23941 ft | 430 kts | 92° |
| 2026-04-27 06:32 | 52.12415 | 2.47599 | 23381 ft | 427 kts | 81° |
| 2026-04-27 06:32 | 52.13107 | 2.52251 | 22962 ft | 419 kts | 69° |
| 2026-04-27 06:33 | 52.14276 | 2.56523 | 22575 ft | 410 kts | 58° |
| 2026-04-27 06:33 | 52.15720 | 2.60501 | 22208 ft | 406 kts | 57° |
| 2026-04-27 06:33 | 52.17150 | 2.64434 | 21833 ft | 403 kts | 57° |
| 2026-04-27 06:33 | 52.18549 | 2.68298 | 21453 ft | 400 kts | 57° |
| 2026-04-27 06:34 | 52.19957 | 2.72194 | 21084 ft | 397 kts | 57° |
| 2026-04-27 06:34 | 52.21350 | 2.76064 | 20717 ft | 395 kts | 57° |
| 2026-04-27 06:34 | 52.22735 | 2.79929 | 20350 ft | 393 kts | 57° |
| 2026-04-27 06:34 | 52.24107 | 2.83762 | 19985 ft | 390 kts | 57° |
| 2026-04-27 06:35 | 52.25475 | 2.87585 | 19630 ft | 388 kts | 57° |
| 2026-04-27 06:35 | 52.26830 | 2.91376 | 19261 ft | 386 kts | 57° |
| 2026-04-27 06:35 | 52.28182 | 2.95152 | 18898 ft | 383 kts | 57° |
| 2026-04-27 06:35 | 52.29521 | 2.98895 | 18543 ft | 381 kts | 57° |
| 2026-04-27 06:36 | 52.30850 | 3.02621 | 18163 ft | 378 kts | 57° |
| 2026-04-27 06:36 | 52.32168 | 3.06325 | 17807 ft | 375 kts | 57° |
| 2026-04-27 06:36 | 52.33458 | 3.09956 | 17466 ft | 373 kts | 57° |
| 2026-04-27 06:36 | 52.34772 | 3.13665 | 17112 ft | 371 kts | 58° |
| 2026-04-27 06:37 | 52.36040 | 3.17253 | 16770 ft | 368 kts | 58° |
| 2026-04-27 06:37 | 52.37317 | 3.20869 | 16425 ft | 366 kts | 58° |
| 2026-04-27 06:37 | 52.38586 | 3.24463 | 16083 ft | 363 kts | 58° |
| 2026-04-27 06:37 | 52.39844 | 3.28034 | 15748 ft | 361 kts | 58° |
| 2026-04-27 06:38 | 52.41096 | 3.31592 | 15410 ft | 359 kts | 58° |
| 2026-04-27 06:38 | 52.42338 | 3.35120 | 15079 ft | 357 kts | 58° |
| 2026-04-27 06:38 | 52.43570 | 3.38627 | 14748 ft | 354 kts | 59° |
| 2026-04-27 06:38 | 52.44678 | 3.42224 | 14415 ft | 353 kts | 68° |
| 2026-04-27 06:39 | 52.45362 | 3.46078 | 14079 ft | 351 kts | 76° |
| 2026-04-27 06:39 | 52.45916 | 3.49962 | 13726 ft | 349 kts | 76° |
| 2026-04-27 06:39 | 52.46471 | 3.53815 | 13401 ft | 346 kts | 76° |
| 2026-04-27 06:39 | 52.47025 | 3.57649 | 13086 ft | 344 kts | 76° |
| 2026-04-27 06:40 | 52.47575 | 3.61462 | 12755 ft | 342 kts | 76° |
| 2026-04-27 06:40 | 52.48119 | 3.65250 | 12434 ft | 340 kts | 76° |
| 2026-04-27 06:40 | 52.48659 | 3.69021 | 12113 ft | 338 kts | 76° |
| 2026-04-27 06:40 | 52.49193 | 3.72777 | 11798 ft | 336 kts | 76° |
| 2026-04-27 06:41 | 52.49723 | 3.76507 | 11480 ft | 335 kts | 76° |
| 2026-04-27 06:41 | 52.50244 | 3.80215 | 11164 ft | 332 kts | 76° |
| 2026-04-27 06:41 | 52.50759 | 3.83905 | 10855 ft | 331 kts | 76° |
| 2026-04-27 06:41 | 52.51269 | 3.87565 | 10612 ft | 324 kts | 76° |
| 2026-04-27 06:42 | 52.51752 | 3.91096 | 10488 ft | 312 kts | 79° |
| 2026-04-27 06:42 | 52.51836 | 3.94583 | 10304 ft | 304 kts | 96° |
| 2026-04-27 06:42 | 52.51309 | 3.97843 | 10128 ft | 298 kts | 113° |
| 2026-04-27 06:42 | 52.50219 | 4.00765 | 9741 ft | 296 kts | 131° |
| 2026-04-27 06:43 | 52.48833 | 4.03180 | 9374 ft | 293 kts | 134° |
| 2026-04-27 06:43 | 52.47423 | 4.05597 | 8858 ft | 296 kts | 134° |
| 2026-04-27 06:43 | 52.46004 | 4.08033 | 8459 ft | 294 kts | 134° |
| 2026-04-27 06:43 | 52.44598 | 4.10448 | 8116 ft | 290 kts | 134° |
| 2026-04-27 06:44 | 52.43214 | 4.12827 | 7734 ft | 287 kts | 134° |
| 2026-04-27 06:44 | 52.41836 | 4.15194 | 7328 ft | 286 kts | 133° |
| 2026-04-27 06:44 | 52.40473 | 4.17538 | 6937 ft | 284 kts | 133° |
| 2026-04-27 06:44 | 52.39124 | 4.19859 | 6606 ft | 279 kts | 133° |
| 2026-04-27 06:45 | 52.37786 | 4.22158 | 6153 ft | 278 kts | 133° |
| 2026-04-27 06:45 | 52.36458 | 4.24432 | 5788 ft | 275 kts | 133° |
| 2026-04-27 06:45 | 52.35145 | 4.26675 | 5443 ft | 272 kts | 133° |
| 2026-04-27 06:45 | 52.33839 | 4.28908 | 5097 ft | 271 kts | 133° |
| 2026-04-27 06:46 | 52.32542 | 4.31128 | 4747 ft | 270 kts | 132° |
| 2026-04-27 06:46 | 52.31247 | 4.33339 | 4405 ft | 268 kts | 132° |
| 2026-04-27 06:46 | 52.29961 | 4.35530 | 4063 ft | 266 kts | 132° |
| 2026-04-27 06:46 | 52.28681 | 4.37702 | 3727 ft | 264 kts | 132° |
| 2026-04-27 06:47 | 52.27408 | 4.39856 | 3383 ft | 263 kts | 132° |
| 2026-04-27 06:47 | 52.26094 | 4.41917 | 3074 ft | 261 kts | 142° |
| 2026-04-27 06:47 | 52.24622 | 4.43485 | 3003 ft | 246 kts | 146° |
| 2026-04-27 06:47 | 52.23216 | 4.44942 | 2897 ft | 232 kts | 143° |
| 2026-04-27 06:48 | 52.22090 | 4.46706 | 2815 ft | 219 kts | 124° |
| 2026-04-27 06:48 | 52.21399 | 4.48831 | 2702 ft | 207 kts | 107° |
| 2026-04-27 06:48 | 52.21141 | 4.51071 | 2606 ft | 196 kts | 88° |
| 2026-04-27 06:48 | 52.21280 | 4.53250 | 2519 ft | 191 kts | 73° |
| 2026-04-27 06:49 | 52.21770 | 4.55227 | 2439 ft | 185 kts | 59° |
| 2026-04-27 06:49 | 52.22427 | 4.56934 | 2368 ft | 173 kts | 57° |
| 2026-04-27 06:49 | 52.23062 | 4.58571 | 2183 ft | 168 kts | 57° |
| 2026-04-27 06:49 | 52.23671 | 4.60144 | 1959 ft | 164 kts | 57° |
| 2026-04-27 06:50 | 52.24268 | 4.61688 | 1752 ft | 156 kts | 57° |
| 2026-04-27 06:50 | 52.24824 | 4.63124 | 1546 ft | 143 kts | 58° |
| 2026-04-27 06:50 | 52.25340 | 4.64459 | 1377 ft | 136 kts | 59° |
| 2026-04-27 06:50 | 52.25834 | 4.65740 | 1183 ft | 132 kts | 59° |
| 2026-04-27 06:51 | 52.26320 | 4.66998 | 1015 ft | 131 kts | 59° |
| 2026-04-27 06:51 | 52.26802 | 4.68249 | 821 ft | 130 kts | 59° |
| 2026-04-27 06:51 | 52.27281 | 4.69492 | 649 ft | 130 kts | 59° |
| 2026-04-27 06:51 | 52.27765 | 4.70748 | 467 ft | 131 kts | 60° |
| 2026-04-27 06:52 | 52.28243 | 4.72007 | 291 ft | 130 kts | 60° |
| 2026-04-27 06:52 | 52.28726 | 4.73250 | 103 ft | 130 kts | 59° |
| 2026-04-27 06:52 | 52.29189 | 4.74449 | 0 ft | 109 kts | 56° |
| 2026-04-27 06:52 | 52.29503 | 4.75262 | -2 ft | 60 kts | 57° |
| 2026-04-27 06:53 | 52.29671 | 4.75693 | -2 ft | 37 kts | 49° |
| 2026-04-27 06:53 | 52.29860 | 4.75867 | -1 ft | 25 kts | 30° |
| 2026-04-27 06:53 | 52.30009 | 4.76022 | -1 ft | 26 kts | 49° |
| 2026-04-27 06:53 | 52.30102 | 4.76275 | -1 ft | 27 kts | 58° |
| 2026-04-27 06:54 | 52.30202 | 4.76535 | -1 ft | 27 kts | 57° |
| 2026-04-27 06:54 | 52.30304 | 4.76803 | -1 ft | 28 kts | 58° |
| 2026-04-27 06:54 | 52.30410 | 4.77078 | -1 ft | 29 kts | 58° |
| 2026-04-27 06:54 | 52.30517 | 4.77363 | -1 ft | 30 kts | 58° |
| 2026-04-27 06:55 | 52.30617 | 4.77573 | -1 ft | 20 kts | 26° |
| 2026-04-27 06:55 | 52.30763 | 4.77595 | -1 ft | 22 kts | 2° |
| 2026-04-27 06:55 | 52.30926 | 4.77612 | -1 ft | 23 kts | 3° |
| 2026-04-27 06:55 | 52.31034 | 4.77537 | -1 ft | 17 kts | 301° |
| 2026-04-27 06:56 | 52.31071 | 4.77371 | -1 ft | 15 kts | 274° |
| 2026-04-27 06:56 | 52.31076 | 4.77209 | -1 ft | 14 kts | 273° |
| 2026-04-27 06:56 | 52.31082 | 4.77038 | -1 ft | 15 kts | 273° |
| 2026-04-27 06:56 | 52.31083 | 4.76891 | -1 ft | 12 kts | 257° |
| 2026-04-27 06:57 | 52.31028 | 4.76812 | -1 ft | 10 kts | 215° |
| 2026-04-27 06:57 | 52.30984 | 4.76733 | -1 ft | 9 kts | 219° |
| 2026-04-27 06:57 | 52.30930 | 4.76714 | -1 ft | 6 kts | 182° |
| 2026-04-27 06:57 | 52.30911 | 4.76712 | -1 ft | 0 kts | 183° |